| time (UTC) | temp F | wind direction | speed MPH | gust MPH | rain 1hr in | rain 24hr in | rain mn in | humidity % | barometer mb |
| 20260505124604 | 52 | 209 | 0.0 | 0.0 | 0.00 | 0.00 | 0.00 | 56 | 1009.5 |
| 20260505123059 | 52 | 209 | 0.0 | 0.0 | 0.00 | 0.00 | 0.00 | 60 | 1009.3 |
| 20260505121620 | 53 | 209 | 0.0 | 0.0 | 0.00 | 0.00 | 0.00 | 68 | 1009.3 |
| 20260505120055 | 53 | 209 | 0.0 | 0.0 | 0.00 | 0.00 | 0.00 | 68 | 1009.2 |
| 20260505114551 | 53 | 209 | 0.0 | 0.0 | 0.00 | 0.00 | 0.00 | 70 | 1009.2 |
| 20260505113049 | 54 | 209 | 0.0 | 0.0 | 0.00 | 0.00 | 0.00 | 71 | 1009.2 |
| 20260505111547 | 55 | 209 | 0.0 | 0.0 | 0.00 | 0.00 | 0.00 | 71 | 1009.1 |
| 20260505101551 | 57 | 238 | 0.0 | 0.0 | 0.00 | 0.00 | 0.00 | 70 | 1008.8 |
| 20260505100037 | 58 | 238 | 0.0 | 6.0 | 0.00 | 0.00 | 0.00 | 69 | 1008.6 |
| 20260505094538 | 57 | 215 | 0.0 | 0.0 | 0.00 | 0.00 | 0.00 | 70 | 1008.5 |
| 20260505093041 | 57 | 215 | 0.0 | 0.0 | 0.00 | 0.00 | 0.00 | 69 | 1008.4 |
| 20260505091539 | 58 | 215 | 0.0 | 0.0 | 0.00 | 0.00 | 0.00 | 69 | 1008.4 |
| 20260505090048 | 56 | 214 | 0.0 | 0.0 | 0.00 | 0.00 | 0.00 | 71 | 1008.4 |
| 20260505084531 | 56 | 214 | 0.0 | 0.0 | 0.00 | 0.00 | 0.00 | 71 | 1008.2 |
| 20260505083032 | 56 | 214 | 0.0 | 0.0 | 0.00 | 0.00 | 0.00 | 71 | 1008.2 |
| 20260505081530 | 57 | 214 | 0.0 | 0.0 | 0.00 | 0.00 | 0.00 | 71 | 1008.1 |
| 20260505080024 | 57 | 214 | 0.0 | 0.0 | 0.00 | 0.00 | 0.00 | 71 | 1008.2 |
| 20260505074522 | 58 | 213 | 0.0 | 0.0 | 0.00 | 0.00 | 0.00 | 71 | 1008.0 |
| 20260505073020 | 58 | 213 | 0.0 | 0.0 | 0.00 | 0.00 | 0.00 | 71 | 1007.8 |
| 20260505071518 | 58 | 213 | 0.0 | 0.0 | 0.00 | 0.00 | 0.00 | 70 | 1007.8 |
| 20260505070015 | 60 | 213 | 0.0 | 0.0 | 0.00 | 0.00 | 0.00 | 69 | 1007.6 |
| 20260505064512 | 60 | 238 | 0.0 | 5.0 | 0.00 | 0.00 | 0.00 | 68 | 1007.4 |
| 20260505063014 | 61 | 249 | 0.0 | 6.0 | 0.00 | 0.00 | 0.00 | 67 | 1007.5 |
| 20260505061512 | 61 | 234 | 0.0 | 0.0 | 0.00 | 0.00 | 0.00 | 67 | 1007.3 |
| 20260505060024 | 61 | 240 | 0.0 | 0.0 | 0.00 | 0.00 | 0.00 | 66 | 1007.2 |
| 20260505054518 | 62 | 250 | 0.0 | 0.0 | 0.00 | 0.00 | 0.00 | 66 | 1007.2 |
| 20260505053010 | 63 | 250 | 0.0 | 0.0 | 0.00 | 0.00 | 0.00 | 64 | 1007.1 |
| 20260505051510 | 63 | 250 | 0.0 | 0.0 | 0.00 | 0.00 | 0.00 | 63 | 1007.2 |
| 20260505041508 | 66 | 204 | 0.0 | 0.0 | 0.00 | 0.00 | 0.00 | 57 | 1006.7 |
| 20260505040008 | 68 | 205 | 0.0 | 0.0 | 0.00 | 0.00 | 0.00 | 56 | 1006.6 |
| 20260505034507 | 67 | 315 | 3.0 | 10.0 | 0.00 | 0.00 | 0.00 | 56 | 1006.3 |
| 20260505033015 | 68 | 240 | 0.0 | 8.0 | 0.00 | 0.00 | 0.00 | 55 | 1006.1 |
| 20260505031506 | 68 | 269 | 2.0 | 7.0 | 0.00 | 0.00 | 0.00 | 55 | 1005.9 |
| 20260505030005 | 69 | 263 | 5.0 | 20.0 | 0.00 | 0.00 | 0.00 | 54 | 1005.7 |
| 20260505024505 | 69 | 247 | 7.0 | 15.0 | 0.00 | 0.00 | 0.00 | 54 | 1005.6 |
| 20260505023004 | 71 | 252 | 8.0 | 21.0 | 0.00 | 0.00 | 0.00 | 52 | 1005.6 |
| 20260505021503 | 72 | 279 | 11.0 | 24.0 | 0.00 | 0.00 | 0.00 | 50 | 1005.4 |
| 20260505020003 | 72 | 271 | 7.0 | 17.0 | 0.00 | 0.00 | 0.00 | 49 | 1005.1 |
| 20260505014507 | 73 | 300 | 10.0 | 18.0 | 0.00 | 0.00 | 0.00 | 47 | 1005.2 |
| 20260505013002 | 74 | 254 | 8.0 | 17.0 | 0.00 | 0.00 | 0.00 | 45 | 1005.2 |
| 20260505011503 | 75 | 248 | 11.0 | 19.0 | 0.00 | 0.00 | 0.00 | 42 | 1005.4 |
| 20260505010103 | 75 | 277 | 6.0 | 19.0 | 0.00 | 0.00 | 0.00 | 43 | 1005.5 |
| 20260505004602 | 76 | 259 | 10.0 | 18.0 | 0.00 | 0.00 | 0.00 | 41 | 1005.3 |
| 20260505003103 | 76 | 284 | 11.0 | 21.0 | 0.00 | 0.00 | 0.00 | 40 | 1005.1 |
| 20260505001559 | 77 | 252 | 6.0 | 19.0 | 0.00 | 0.00 | 0.00 | 41 | 1005.1 |
| 20260504234622 | 78 | 234 | 5.0 | 15.0 | 0.00 | 0.00 | 0.00 | 39 | 1005.0 |
| 20260504233057 | 78 | 265 | 11.0 | 20.0 | 0.00 | 0.00 | 0.00 | 37 | 1005.1 |
| 20260504231601 | 79 | 274 | 6.0 | 17.0 | 0.00 | 0.00 | 0.00 | 37 | 1005.1 |
| 20260504230053 | 79 | 254 | 9.0 | 14.0 | 0.00 | 0.00 | 0.00 | 36 | 1005.2 |
| 20260504224603 | 79 | 360 | 8.0 | 16.0 | 0.00 | 0.00 | 0.00 | 34 | 1005.4 |
| 20260504223050 | 80 | 274 | 7.0 | 13.0 | 0.00 | 0.00 | 0.00 | 36 | 1005.5 |
| 20260504221600 | 80 | 259 | 8.0 | 15.0 | 0.00 | 0.00 | 0.00 | 32 | 1005.5 |
| 20260504220052 | 80 | 289 | 8.0 | 14.0 | 0.00 | 0.00 | 0.00 | 34 | 1005.7 |
| 20260504214551 | 80 | 286 | 4.0 | 12.0 | 0.00 | 0.00 | 0.00 | 36 | 1005.7 |
| 20260504213052 | 80 | 286 | 6.0 | 12.0 | 0.00 | 0.00 | 0.00 | 33 | 1005.8 |
| 20260504211544 | 80 | 360 | 7.0 | 13.0 | 0.00 | 0.00 | 0.00 | 33 | 1006.0 |
| 20260504210053 | 80 | 257 | 2.0 | 13.0 | 0.00 | 0.00 | 0.00 | 37 | 1006.1 |
| 20260504204619 | 80 | 277 | 4.0 | 12.0 | 0.00 | 0.00 | 0.00 | 32 | 1006.2 |
| 20260504203040 | 80 | 267 | 5.0 | 11.0 | 0.00 | 0.00 | 0.00 | 30 | 1006.3 |
| 20260504201538 | 80 | 267 | 4.0 | 9.0 | 0.00 | 0.00 | 0.00 | 31 | 1006.4 |
| 20260504200039 | 80 | 276 | 4.0 | 9.0 | 0.00 | 0.00 | 0.00 | 33 | 1006.5 |
| 20260504194545 | 80 | 254 | 5.0 | 12.0 | 0.00 | 0.00 | 0.00 | 28 | 1006.6 |
| 20260504193034 | 80 | 209 | 0.0 | 6.0 | 0.00 | 0.00 | 0.00 | 27 | 1006.7 |
| 20260504191530 | 79 | 212 | 5.0 | 9.0 | 0.00 | 0.00 | 0.00 | 28 | 1006.8 |
| 20260504190026 | 77 | 93 | 0.0 | 0.0 | 0.00 | 0.00 | 0.00 | 37 | 1007.0 |
| 20260504184523 | 76 | 146 | 0.0 | 8.0 | 0.00 | 0.00 | 0.00 | 39 | 1007.0 |
| 20260504183020 | 75 | 67 | 1.0 | 9.0 | 0.00 | 0.00 | 0.00 | 45 | 1007.2 |
| 20260504181518 | 74 | 62 | 4.0 | 13.0 | 0.00 | 0.00 | 0.00 | 41 | 1007.2 |
| 20260504180015 | 72 | 112 | 0.0 | 0.0 | 0.00 | 0.00 | 0.00 | 51 | 1007.2 |
| 20260504174512 | 71 | 73 | 0.0 | 1.0 | 0.00 | 0.00 | 0.00 | 51 | 1007.3 |
| 20260504173009 | 70 | 91 | 0.0 | 0.0 | 0.00 | 0.00 | 0.00 | 55 | 1007.4 |
| 20260504171522 | 68 | 103 | 0.0 | 0.0 | 0.00 | 0.00 | 0.00 | 58 | 1007.5 |